モントリオール/トルドー の空港の天気 - METARとTAF

モントリオール・ピエール・エリオット・トルドー国際空港 ( CYUL / YUL ) - カナダ ケベック州モントリオール
飛行場実況気象(Metar)
観測時間04/27 02:49 EDT (04/27 06:49 UTC)
風向・風速北 4m/s
視程3200m
天気現象もや
全天を覆う雲 雲底高度 30m
気温11℃
湿度94%
気圧1009.5hPa
METARCYUL 270649Z 01008KT 2SM BR OVC001 11/10 A2981 RMK ST8 SLP095
過去の天気等 Google飛行場航空写真 Wunderground天気予報

過去48時間のMETAR

飛行場予報(TAF)
発表時間: 4/27 01:42 EDT (4/27 05:42 UTC)
予報対象時間: 27日2時 EDT ~ 28日2時 EDT
風向・風速北東 5m/s
視程4,830m
天気現象もや
全天の8割程度の雲 雲底高度 30m
27日2時 EDT ~ 27日3時 EDT に一時的に
視程10km以上
天気現象もや
全天の4割程度の雲 雲底高度 60m
27日3時 EDT から
風向・風速北東 4m/s
視程8,850m
天気現象もや
全天を覆う雲 雲底高度 60m
27日3時 EDT ~ 27日9時 EDT に一時的に
視程10km以上
天気現象もや
全天を覆う雲 雲底高度 120m
27日9時 EDT から
風向・風速北東 4m/s
視程8,050m
天気現象もや
全天の8割程度の雲 雲底高度 150m
全天を覆う雲 雲底高度 300m
27日9時 EDT ~ 27日11時 EDT に一時的に
視程10km以上
天気現象運行に影響にある天気現象が終了
全天の4割程度の雲 雲底高度 150m
全天の8割程度の雲 雲底高度 300m
27日11時 EDT から
風向・風速東北東 5m/s
視程10km以上
少しの雲 雲底高度 210m
全天の8割程度の雲 雲底高度 460m
27日11時 EDT ~ 27日14時 EDT に一時的に
全天の4割程度の雲 雲底高度 460m
全天の8割程度の雲 雲底高度 760m
27日14時 EDT から
風向・風速東 5m/s
視程10km以上
全天の8割程度の雲 雲底高度 760m
27日17時 EDT から
風向・風速東南東 8m/s
視程10km以上
全天の4割程度の雲 雲底高度 1,220m
TAF CYUL 270542Z 2706/2806 04010KT 3SM BR BKN001
TEMPO 2706/2707 6SM BR SCT002
FM270700 04008KT 11/2SM BR OVC002
TEMPO 2707/2713 6SM BR OVC004
FM271300 04008KT 5SM BR BKN005 OVC010
TEMPO 2713/2715 P6SM NSW SCT005 BKN010
FM271500 06010KT P6SM FEW007 BKN015
TEMPO 2715/2718 SCT015 BKN025
FM271800 10010KT P6SM BKN025
FM272100 11015KT P6SM SCT040 RMK NXT FCST BY 270900Z